createdAt,value
2023-04-18T00:00:19.001Z,52.83
2023-04-18T00:01:18.968Z,55.99
2023-04-18T00:02:19.081Z,55.36
2023-04-18T00:03:19.181Z,61.76
2023-04-18T00:04:19.619Z,58.35
2023-04-18T00:05:18.978Z,57.91
2023-04-18T00:06:18.924Z,64.54
2023-04-18T00:07:18.918Z,57.25
2023-04-18T00:08:18.901Z,48.00
2023-04-18T00:09:18.934Z,54.71
2023-04-18T00:10:18.917Z,61.39
2023-04-18T00:11:18.885Z,55.93
2023-04-18T00:12:18.880Z,53.32
2023-04-18T00:13:18.871Z,60.59
2023-04-18T00:14:18.861Z,56.52
2023-04-18T00:15:19.884Z,50.48
2023-04-18T00:16:18.880Z,57.43
2023-04-18T00:17:18.838Z,67.59
2023-04-18T00:18:18.837Z,57.06
2023-04-18T00:19:18.826Z,64.27
2023-04-18T00:20:18.843Z,57.61
2023-04-18T00:21:18.807Z,52.73
2023-04-18T00:22:18.810Z,56.87
2023-04-18T00:23:18.794Z,55.12
2023-04-18T00:24:18.784Z,64.50
2023-04-18T00:25:18.808Z,65.34
2023-04-18T00:26:18.772Z,55.26
2023-04-18T00:27:18.774Z,62.13
2023-04-18T00:28:18.768Z,60.61
2023-04-18T00:29:18.775Z,50.59
2023-04-18T00:30:18.747Z,57.92
2023-04-18T00:31:18.758Z,52.05
2023-04-18T00:32:18.768Z,60.86
2023-04-18T00:33:18.716Z,49.60
2023-04-18T00:34:18.733Z,56.51
2023-04-18T00:35:18.699Z,54.06
2023-04-18T00:36:18.693Z,58.31
2023-04-18T00:37:18.693Z,57.87
2023-04-18T00:38:18.677Z,46.69
2023-04-18T00:39:18.668Z,54.05
2023-04-18T00:40:18.700Z,58.66
2023-04-18T00:41:18.651Z,52.57
2023-04-18T00:42:18.644Z,50.24
2023-04-18T00:43:18.645Z,59.00
2023-04-18T00:44:18.632Z,57.38
2023-04-18T00:45:18.648Z,48.89
2023-04-18T00:46:18.657Z,57.01
2023-04-18T00:47:18.608Z,56.79
2023-04-18T00:48:18.601Z,64.96
2023-04-18T00:49:18.595Z,54.73
2023-04-18T00:50:18.613Z,52.77
2023-04-18T00:51:18.571Z,64.53
2023-04-18T00:52:18.608Z,59.89
2023-04-18T00:53:18.559Z,58.20
2023-04-18T00:54:18.562Z,59.31
2023-04-18T00:55:18.574Z,56.37
2023-04-18T00:56:18.538Z,46.42
2023-04-18T00:57:18.529Z,59.94
2023-04-18T00:58:18.520Z,63.91
2023-04-18T00:59:18.531Z,56.59
2023-04-18T01:00:18.526Z,55.67
2023-04-18T01:01:18.520Z,50.81
2023-04-18T01:02:18.543Z,50.08
2023-04-18T01:03:18.634Z,55.11
2023-04-18T01:04:18.730Z,48.40
2023-04-18T01:05:18.489Z,46.77
2023-04-18T01:06:18.470Z,59.08
2023-04-18T01:07:18.455Z,58.36
2023-04-18T01:08:18.434Z,51.71
2023-04-18T01:09:18.436Z,50.41
2023-04-18T01:10:18.455Z,52.76
2023-04-18T01:11:18.467Z,59.37
2023-04-18T01:12:18.417Z,64.21
2023-04-18T01:13:18.414Z,61.85
2023-04-18T01:14:18.398Z,51.56
2023-04-18T01:15:18.413Z,59.18
2023-04-18T01:16:18.406Z,54.46
2023-04-18T01:17:18.370Z,54.32
2023-04-18T01:18:18.377Z,56.70
2023-04-18T01:19:18.362Z,61.32
2023-04-18T01:20:18.380Z,51.08
2023-04-18T01:21:18.337Z,58.93
2023-04-18T01:22:18.333Z,65.75
2023-04-18T01:23:18.317Z,57.38
2023-04-18T01:24:18.320Z,59.84
2023-04-18T01:25:18.327Z,57.41
2023-04-18T01:26:18.303Z,57.51
2023-04-18T01:27:18.306Z,59.57
2023-04-18T01:28:18.293Z,65.22
2023-04-18T01:29:18.280Z,52.66
2023-04-18T01:30:18.293Z,48.02
2023-04-18T01:31:18.296Z,60.08
2023-04-18T01:32:18.259Z,61.88
2023-04-18T01:33:18.248Z,50.32
2023-04-18T01:34:18.252Z,56.11
2023-04-18T01:35:18.260Z,53.58
2023-04-18T01:36:18.232Z,58.63
2023-04-18T01:37:18.221Z,64.29
2023-04-18T01:38:18.211Z,54.70
2023-04-18T01:39:18.227Z,62.36
2023-04-18T01:40:18.228Z,56.62
2023-04-18T01:41:18.186Z,64.80
2023-04-18T01:42:18.196Z,54.60
2023-04-18T01:43:18.172Z,64.46
2023-04-18T01:44:18.161Z,57.84
2023-04-18T01:45:18.180Z,59.63
2023-04-18T01:46:18.166Z,65.65
2023-04-18T01:47:18.155Z,60.97
2023-04-18T01:48:18.133Z,59.72
2023-04-18T01:49:18.122Z,65.97
2023-04-18T01:50:18.151Z,61.76
2023-04-18T01:51:18.112Z,58.43
2023-04-18T01:52:18.111Z,55.52
2023-04-18T01:53:18.110Z,55.57
2023-04-18T01:54:18.092Z,51.53
2023-04-18T01:55:18.114Z,65.71
2023-04-18T01:56:18.086Z,56.41
2023-04-18T01:57:18.069Z,47.24
2023-04-18T01:58:18.067Z,52.86
2023-04-18T01:59:18.063Z,51.77
2023-04-18T02:00:18.067Z,55.81
2023-04-18T02:01:18.091Z,54.82
2023-04-18T02:02:18.139Z,54.24
2023-04-18T02:03:18.181Z,63.56
2023-04-18T02:04:18.145Z,63.29
2023-04-18T02:05:19.024Z,60.36
2023-04-18T02:06:18.016Z,56.32
2023-04-18T02:07:17.980Z,63.46
2023-04-18T02:08:17.970Z,58.93
2023-04-18T02:09:17.972Z,61.66
2023-04-18T02:10:17.991Z,60.44
2023-04-18T02:11:17.959Z,55.77
2023-04-18T02:12:17.941Z,62.97
2023-04-18T02:13:17.938Z,57.64
2023-04-18T02:14:17.929Z,54.19
2023-04-18T02:15:17.949Z,65.45
2023-04-18T02:16:17.956Z,56.22
2023-04-18T02:17:17.913Z,56.76
2023-04-18T02:18:17.901Z,64.89
2023-04-18T02:19:17.887Z,58.78
2023-04-18T02:20:17.903Z,65.99
2023-04-18T02:21:17.902Z,60.08
2023-04-18T02:22:17.862Z,60.66
2023-04-18T02:23:17.853Z,54.01
2023-04-18T02:24:17.892Z,52.66
2023-04-18T02:25:17.909Z,62.68
2023-04-18T02:26:17.839Z,45.99
2023-04-18T02:27:17.826Z,50.68
2023-04-18T02:28:17.912Z,47.21
2023-04-18T02:29:17.814Z,54.51
2023-04-18T02:30:17.833Z,59.64
2023-04-18T02:31:17.819Z,55.14
2023-04-18T02:32:17.792Z,56.94
2023-04-18T02:33:17.782Z,62.14
2023-04-18T02:34:17.781Z,58.15
2023-04-18T02:35:17.760Z,62.63
2023-04-18T02:36:17.783Z,69.67
2023-04-18T02:37:17.752Z,63.42
2023-04-18T02:38:17.733Z,60.96
2023-04-18T02:39:17.731Z,61.14
2023-04-18T02:40:17.725Z,55.20
2023-04-18T02:41:17.750Z,59.82
2023-04-18T02:42:17.708Z,49.86
2023-04-18T02:43:17.697Z,52.27
2023-04-18T02:44:17.694Z,52.81
2023-04-18T02:45:17.688Z,60.07
2023-04-18T02:46:17.721Z,61.82
2023-04-18T02:47:17.673Z,65.23
2023-04-18T02:48:17.686Z,61.89
2023-04-18T02:49:17.647Z,57.96
2023-04-18T02:50:17.642Z,67.78
2023-04-18T02:51:17.662Z,59.41
2023-04-18T02:52:17.626Z,64.14
2023-04-18T02:53:17.625Z,59.64
2023-04-18T02:54:17.611Z,62.63
2023-04-18T02:55:17.611Z,60.95
2023-04-18T02:56:17.629Z,61.48
2023-04-18T02:57:17.593Z,61.12
2023-04-18T02:58:17.585Z,63.36
2023-04-18T02:59:17.587Z,67.07
2023-04-18T03:00:17.594Z,68.68
2023-04-18T03:01:17.636Z,56.53
2023-04-18T03:02:17.596Z,55.36
2023-04-18T03:03:17.664Z,60.14
2023-04-18T03:04:17.615Z,60.74
2023-04-18T03:05:17.555Z,65.84
2023-04-18T03:06:17.562Z,60.15
2023-04-18T03:07:17.521Z,59.82
2023-04-18T03:08:17.518Z,55.36
2023-04-18T03:09:17.501Z,63.69
2023-04-18T03:10:17.491Z,60.28
2023-04-18T03:11:17.515Z,63.30
2023-04-18T03:12:17.479Z,62.96
2023-04-18T03:13:17.492Z,59.45
2023-04-18T03:14:17.496Z,63.32
2023-04-18T03:15:17.455Z,57.29
2023-04-18T03:16:17.529Z,63.12
2023-04-18T03:17:17.438Z,65.22
2023-04-18T03:18:17.449Z,60.56
2023-04-18T03:19:17.426Z,63.44
2023-04-18T03:20:17.417Z,64.49
2023-04-18T03:21:17.440Z,63.66
2023-04-18T03:22:17.417Z,63.48
2023-04-18T03:23:17.393Z,62.27
2023-04-18T03:24:17.576Z,65.74
2023-04-18T03:25:17.409Z,65.83
2023-04-18T03:26:17.426Z,55.52
2023-04-18T03:27:17.369Z,61.02
2023-04-18T03:28:17.358Z,65.61
2023-04-18T03:29:17.341Z,66.45
2023-04-18T03:30:17.355Z,61.68
2023-04-18T03:31:17.403Z,61.85
2023-04-18T03:32:17.397Z,67.78
2023-04-18T03:33:17.338Z,61.41
2023-04-18T03:34:17.304Z,63.85
2023-04-18T03:35:17.297Z,69.53
2023-04-18T03:36:17.318Z,65.44
2023-04-18T03:37:17.288Z,62.22
2023-04-18T03:38:17.291Z,64.44
2023-04-18T03:39:17.283Z,61.27
2023-04-18T03:40:17.267Z,64.14
2023-04-18T03:41:17.277Z,62.94
2023-04-18T03:42:17.255Z,63.23
2023-04-18T03:43:17.236Z,62.87
2023-04-18T03:44:17.228Z,65.26
2023-04-18T03:45:17.230Z,63.59
2023-04-18T03:46:17.256Z,63.09
2023-04-18T03:47:17.215Z,62.81
2023-04-18T03:48:17.202Z,63.19
2023-04-18T03:49:17.202Z,59.19
2023-04-18T03:50:17.182Z,64.46
2023-04-18T03:51:17.202Z,64.26
2023-04-18T03:52:17.172Z,62.27
2023-04-18T03:53:17.180Z,63.41
2023-04-18T03:54:17.331Z,63.05
2023-04-18T03:55:17.153Z,59.19
2023-04-18T03:56:17.197Z,67.50
2023-04-18T03:57:17.131Z,65.64
2023-04-18T03:58:17.128Z,63.64
2023-04-18T03:59:17.112Z,66.41
2023-04-18T04:00:17.116Z,64.49
2023-04-18T04:01:17.132Z,63.76
2023-04-18T04:02:17.160Z,65.07
2023-04-18T04:03:17.144Z,66.67
2023-04-18T04:04:17.451Z,63.95
2023-04-18T04:05:17.076Z,63.33
2023-04-18T04:06:17.094Z,65.32
2023-04-18T04:07:17.065Z,68.46
2023-04-18T04:08:17.056Z,63.95
2023-04-18T04:09:17.048Z,63.47
2023-04-18T04:10:17.054Z,61.54
2023-04-18T04:11:17.048Z,66.01
2023-04-18T04:12:17.016Z,65.44
2023-04-18T04:13:17.014Z,66.29
2023-04-18T04:14:17.001Z,63.79
2023-04-18T04:15:17.004Z,65.62
2023-04-18T04:16:17.102Z,66.85
2023-04-18T04:17:16.983Z,66.45
2023-04-18T04:18:16.981Z,63.39
2023-04-18T04:19:16.962Z,65.60
2023-04-18T04:20:16.955Z,65.88
2023-04-18T04:21:17.633Z,63.57
2023-04-18T04:22:16.942Z,63.53
2023-04-18T04:23:16.983Z,66.52
2023-04-18T04:24:16.989Z,63.68
2023-04-18T04:25:16.921Z,64.92
2023-04-18T04:26:16.933Z,68.33
2023-04-18T04:27:16.902Z,70.28
2023-04-18T04:28:16.891Z,65.59
2023-04-18T04:29:16.885Z,67.69
2023-04-18T04:30:16.876Z,65.80
2023-04-18T04:31:16.924Z,69.80
2023-04-18T04:32:16.873Z,67.69
2023-04-18T04:33:16.853Z,67.19
2023-04-18T04:34:16.967Z,65.39
2023-04-18T04:35:16.838Z,66.54
2023-04-18T04:36:18.899Z,70.39
2023-04-18T04:37:17.821Z,62.07
2023-04-18T04:38:16.816Z,70.83
2023-04-18T04:39:16.810Z,70.46
2023-04-18T04:40:16.802Z,69.16
2023-04-18T04:41:16.813Z,66.26
2023-04-18T04:42:16.777Z,65.69
2023-04-18T04:43:16.770Z,66.79
2023-04-18T04:44:16.850Z,68.74
2023-04-18T04:45:16.792Z,70.18
2023-04-18T04:46:16.812Z,65.65
2023-04-18T04:47:16.730Z,70.43
2023-04-18T04:48:16.753Z,65.93
2023-04-18T04:49:16.729Z,69.01
2023-04-18T04:50:16.718Z,69.81
2023-04-18T04:51:16.747Z,68.95
2023-04-18T04:52:16.702Z,68.44
2023-04-18T04:53:16.691Z,66.13
2023-04-18T04:54:16.848Z,68.18
2023-04-18T04:55:16.676Z,67.84
2023-04-18T04:56:16.724Z,70.11
2023-04-18T04:57:16.667Z,68.24
2023-04-18T04:58:16.655Z,68.20
2023-04-18T04:59:16.645Z,63.85
2023-04-18T05:00:16.639Z,68.03
2023-04-18T05:01:16.689Z,67.73
2023-04-18T05:02:16.669Z,66.73
2023-04-18T05:03:16.714Z,67.67
2023-04-18T05:04:16.799Z,68.18
2023-04-18T05:05:16.621Z,66.25
2023-04-18T05:06:16.621Z,68.94
2023-04-18T05:07:16.592Z,67.84
2023-04-18T05:08:16.589Z,67.21
2023-04-18T05:09:16.573Z,67.28
2023-04-18T05:10:16.604Z,65.31
2023-04-18T05:11:16.631Z,67.46
2023-04-18T05:12:16.547Z,66.19
2023-04-18T05:13:16.539Z,66.77
2023-04-18T05:14:16.681Z,68.66
2023-04-18T05:15:16.520Z,66.44
2023-04-18T05:16:16.556Z,65.97
2023-04-18T05:17:16.499Z,67.14
2023-04-18T05:18:16.499Z,67.74
2023-04-18T05:19:16.489Z,69.09
2023-04-18T05:20:16.515Z,68.09
2023-04-18T05:21:16.476Z,70.51
2023-04-18T05:22:16.481Z,69.39
2023-04-18T05:23:16.457Z,65.82
2023-04-18T05:24:16.582Z,67.00
2023-04-18T05:25:16.469Z,63.04
2023-04-18T05:26:16.436Z,68.67
2023-04-18T05:27:18.195Z,68.79
2023-04-18T05:28:16.414Z,70.17
2023-04-18T05:29:16.411Z,68.63
2023-04-18T05:30:16.425Z,63.36
2023-04-18T05:31:16.462Z,69.14
2023-04-18T05:32:16.379Z,65.81
2023-04-18T05:33:16.378Z,66.28
2023-04-18T05:34:16.496Z,68.17
2023-04-18T05:35:16.389Z,66.98
2023-04-18T05:36:16.357Z,69.24
2023-04-18T05:37:16.347Z,66.73
2023-04-18T05:38:16.340Z,70.08
2023-04-18T05:39:16.339Z,66.70
2023-04-18T05:40:16.352Z,65.50
2023-04-18T05:41:16.321Z,68.35
2023-04-18T05:42:16.310Z,69.55
2023-04-18T05:43:16.353Z,67.98
2023-04-18T05:44:16.308Z,67.45
2023-04-18T05:45:16.314Z,68.70
2023-04-18T05:46:16.301Z,68.95
2023-04-18T05:47:16.267Z,66.72
2023-04-18T05:48:16.263Z,68.34
2023-04-18T05:49:16.258Z,67.03
2023-04-18T05:50:16.308Z,68.33
2023-04-18T05:51:16.246Z,67.36
2023-04-18T05:52:16.233Z,70.07
2023-04-18T05:53:16.225Z,70.96
2023-04-18T05:54:16.410Z,64.76
2023-04-18T05:55:16.210Z,65.16
2023-04-18T05:56:16.226Z,69.80
2023-04-18T05:57:16.195Z,65.88
2023-04-18T05:58:16.185Z,68.19
2023-04-18T05:59:16.191Z,68.29
2023-04-18T06:00:16.170Z,66.88
2023-04-18T06:01:16.190Z,66.39
2023-04-18T06:02:16.257Z,68.41
2023-04-18T06:03:16.290Z,65.68
2023-04-18T06:04:16.531Z,66.37
2023-04-18T06:05:16.278Z,67.86
2023-04-18T06:06:16.148Z,65.57
2023-04-18T06:07:16.117Z,65.38
2023-04-18T06:08:16.104Z,60.52
2023-04-18T06:09:16.100Z,66.00
2023-04-18T06:10:16.098Z,64.54
2023-04-18T06:11:16.107Z,67.56
2023-04-18T06:12:16.076Z,64.21
2023-04-18T06:13:16.066Z,65.13
2023-04-18T06:14:16.293Z,64.20
2023-04-18T06:15:16.046Z,66.14
2023-04-18T06:16:16.101Z,65.54
2023-04-18T06:17:16.039Z,65.27
2023-04-18T06:18:16.032Z,67.02
2023-04-18T06:19:16.016Z,65.03
2023-04-18T06:20:16.016Z,66.76
2023-04-18T06:21:16.037Z,67.71
2023-04-18T06:22:15.997Z,67.52
2023-04-18T06:23:15.993Z,66.70
2023-04-18T06:24:16.492Z,64.29
2023-04-18T06:25:15.977Z,67.00
2023-04-18T06:26:15.991Z,67.04
2023-04-18T06:27:30.091Z,69.62
2023-04-18T06:28:17.949Z,61.49
2023-04-18T06:29:15.938Z,63.78
2023-04-18T06:30:15.939Z,66.90
2023-04-18T06:31:15.982Z,67.88
2023-04-18T06:32:15.910Z,70.68
2023-04-18T06:33:15.924Z,67.43
2023-04-18T06:34:16.263Z,67.44
2023-04-18T06:35:15.900Z,68.03
2023-04-18T06:36:15.914Z,64.78
2023-04-18T06:37:15.882Z,66.63
2023-04-18T06:38:15.916Z,67.43
2023-04-18T06:39:15.872Z,64.67
2023-04-18T06:40:15.861Z,66.05
2023-04-18T06:41:15.896Z,67.44
2023-04-18T06:42:15.845Z,68.34
2023-04-18T06:43:15.897Z,64.86
2023-04-18T06:44:15.971Z,66.81
2023-04-18T06:45:15.819Z,67.41
2023-04-18T06:46:15.900Z,65.66
2023-04-18T06:47:15.805Z,65.01
2023-04-18T06:48:15.797Z,65.67
2023-04-18T06:49:15.791Z,65.99
2023-04-18T06:50:15.775Z,69.46
2023-04-18T06:51:15.771Z,65.80
2023-04-18T06:52:15.793Z,65.97
2023-04-18T06:53:15.761Z,65.79
2023-04-18T06:54:15.871Z,64.74
2023-04-18T06:55:15.790Z,64.77
2023-04-18T06:56:15.793Z,68.04
2023-04-18T06:57:15.753Z,66.70
2023-04-18T06:58:15.722Z,64.43
2023-04-18T06:59:15.715Z,59.68
2023-04-18T07:00:15.696Z,66.50
2023-04-18T07:01:15.711Z,63.33
2023-04-18T07:02:15.786Z,64.21
2023-04-18T07:03:15.825Z,64.20
2023-04-18T07:04:16.124Z,64.69
2023-04-18T07:05:15.666Z,67.34
2023-04-18T07:06:15.653Z,64.77
2023-04-18T07:07:15.670Z,63.62
2023-04-18T07:08:15.638Z,67.03
2023-04-18T07:09:15.690Z,66.66
2023-04-18T07:10:15.619Z,67.01
2023-04-18T07:11:15.630Z,64.14
2023-04-18T07:12:15.643Z,68.11
2023-04-18T07:13:15.599Z,67.84
2023-04-18T07:14:15.733Z,65.21
2023-04-18T07:15:15.580Z,65.73
2023-04-18T07:16:15.612Z,64.98
2023-04-18T07:17:15.601Z,65.85
2023-04-18T07:18:23.322Z,65.00
2023-04-18T07:19:17.560Z,64.94
2023-04-18T07:20:15.555Z,65.84
2023-04-18T07:21:15.585Z,62.60
2023-04-18T07:22:15.559Z,65.49
2023-04-18T07:23:15.533Z,68.39
2023-04-18T07:24:15.606Z,67.06
2023-04-18T07:25:15.512Z,67.39
2023-04-18T07:26:15.508Z,67.60
2023-04-18T07:27:15.522Z,65.05
2023-04-18T07:28:15.504Z,64.49
2023-04-18T07:29:15.486Z,65.35
2023-04-18T07:30:15.468Z,64.99
2023-04-18T07:31:15.540Z,63.57
2023-04-18T07:32:15.457Z,69.25
2023-04-18T07:33:15.450Z,64.82
2023-04-18T07:34:16.482Z,63.59
2023-04-18T07:35:15.628Z,66.25
2023-04-18T07:36:15.427Z,65.57
2023-04-18T07:37:15.450Z,65.80
2023-04-18T07:38:15.411Z,64.86
2023-04-18T07:39:15.403Z,65.21
2023-04-18T07:40:15.397Z,64.83
2023-04-18T07:41:15.395Z,67.81
2023-04-18T07:42:15.417Z,64.67
2023-04-18T07:43:15.383Z,63.95
2023-04-18T07:44:15.475Z,64.79
2023-04-18T07:45:15.365Z,62.84
2023-04-18T07:46:15.402Z,66.75
2023-04-18T07:47:15.377Z,70.34
2023-04-18T07:48:15.384Z,67.92
2023-04-18T07:49:15.499Z,66.84
2023-04-18T07:50:15.323Z,65.38
2023-04-18T07:51:15.399Z,69.85
2023-04-18T07:52:15.336Z,68.04
2023-04-18T07:53:15.297Z,62.40
2023-04-18T07:54:15.292Z,67.65
2023-04-18T07:55:15.287Z,66.02
2023-04-18T07:56:15.276Z,69.34
2023-04-18T07:57:15.297Z,63.87
2023-04-18T07:58:15.261Z,65.72
2023-04-18T07:59:15.537Z,64.87
2023-04-18T08:00:15.251Z,67.48
2023-04-18T08:01:15.250Z,65.91
2023-04-18T08:02:15.340Z,68.70
2023-04-18T08:03:15.488Z,67.03
2023-04-18T08:04:15.364Z,67.03
2023-04-18T08:05:15.287Z,65.57
2023-04-18T08:06:15.202Z,67.57
2023-04-18T08:07:15.222Z,64.47
2023-04-18T08:08:15.185Z,67.59
2023-04-18T08:09:15.345Z,65.80
2023-04-18T08:10:15.175Z,65.52
2023-04-18T08:11:15.187Z,64.63
2023-04-18T08:12:15.187Z,66.33
2023-04-18T08:13:15.156Z,68.24
2023-04-18T08:14:15.155Z,65.90
2023-04-18T08:15:15.128Z,66.29
2023-04-18T08:16:17.453Z,66.45
2023-04-18T08:17:16.146Z,67.40
2023-04-18T08:18:15.114Z,66.58
2023-04-18T08:19:15.169Z,67.36
2023-04-18T08:20:15.100Z,67.23
2023-04-18T08:21:15.094Z,68.26
2023-04-18T08:22:15.104Z,66.09
2023-04-18T08:23:15.183Z,66.38
2023-04-18T08:24:15.078Z,68.08
2023-04-18T08:25:15.063Z,65.67
2023-04-18T08:26:15.048Z,67.83
2023-04-18T08:27:15.076Z,65.17
2023-04-18T08:28:15.031Z,67.75
2023-04-18T08:29:15.248Z,69.41
2023-04-18T08:30:15.018Z,67.53
2023-04-18T08:31:15.162Z,66.39
2023-04-18T08:32:15.026Z,66.25
2023-04-18T08:33:14.998Z,64.89
2023-04-18T08:34:14.986Z,65.56
2023-04-18T08:35:14.979Z,66.79
2023-04-18T08:36:14.988Z,68.59
2023-04-18T08:37:14.988Z,69.61
2023-04-18T08:38:14.957Z,68.70
2023-04-18T08:39:15.169Z,66.29
2023-04-18T08:40:14.966Z,63.34
2023-04-18T08:41:14.934Z,65.61
2023-04-18T08:42:14.957Z,70.97
2023-04-18T08:43:14.917Z,67.99
2023-04-18T08:44:14.979Z,65.64
2023-04-18T08:45:14.908Z,66.50
2023-04-18T08:46:14.970Z,67.85
2023-04-18T08:47:14.916Z,66.03
2023-04-18T08:48:14.894Z,66.70
2023-04-18T08:49:15.124Z,69.53
2023-04-18T08:50:14.866Z,63.98
2023-04-18T08:51:14.861Z,69.72
2023-04-18T08:52:14.886Z,66.71
2023-04-18T08:53:14.855Z,66.36
2023-04-18T08:54:14.835Z,64.33
2023-04-18T08:55:14.824Z,67.56
2023-04-18T08:56:14.819Z,66.87
2023-04-18T08:57:14.807Z,66.87
2023-04-18T08:58:14.819Z,65.86
2023-04-18T08:59:16.022Z,64.21
2023-04-18T09:00:14.791Z,64.90
2023-04-18T09:01:14.796Z,70.41
2023-04-18T09:02:14.821Z,67.71
2023-04-18T09:03:14.798Z,66.13
2023-04-18T09:04:14.775Z,69.71
2023-04-18T09:05:14.822Z,64.63
2023-04-18T09:06:14.736Z,63.03
2023-04-18T09:07:14.760Z,67.55
2023-04-18T09:08:14.719Z,66.60
2023-04-18T09:09:14.823Z,65.32
2023-04-18T09:10:14.712Z,66.65
2023-04-18T09:11:14.797Z,68.32
2023-04-18T09:12:14.796Z,66.48
2023-04-18T09:13:14.683Z,68.53
2023-04-18T09:14:14.817Z,68.83
2023-04-18T09:15:14.664Z,66.66
2023-04-18T09:16:14.671Z,65.24
2023-04-18T09:17:14.671Z,66.48
2023-04-18T09:18:14.635Z,67.12
2023-04-18T09:19:15.023Z,67.48
2023-04-18T09:20:14.627Z,65.05
2023-04-18T09:21:14.616Z,63.10
2023-04-18T09:22:14.634Z,68.51
2023-04-18T09:23:14.900Z,68.61
2023-04-18T09:24:14.770Z,67.74
2023-04-18T09:25:14.589Z,71.04
2023-04-18T09:26:14.580Z,65.14
2023-04-18T09:27:14.665Z,67.19
2023-04-18T09:28:14.564Z,64.63
2023-04-18T09:29:14.677Z,67.66
2023-04-18T09:30:14.553Z,71.84
2023-04-18T09:31:14.626Z,68.71
2023-04-18T09:32:14.568Z,68.50
2023-04-18T09:33:14.528Z,66.93
2023-04-18T09:34:14.761Z,66.77
2023-04-18T09:35:14.522Z,62.99
2023-04-18T09:36:14.510Z,65.58
2023-04-18T09:37:14.580Z,65.11
2023-04-18T09:38:14.495Z,67.96
2023-04-18T09:39:14.596Z,63.17
2023-04-18T09:40:14.487Z,66.25
2023-04-18T09:41:14.469Z,66.18
2023-04-18T09:42:14.491Z,65.64
2023-04-18T09:43:14.560Z,67.78
2023-04-18T09:44:15.737Z,68.66
2023-04-18T09:45:15.457Z,64.15
2023-04-18T09:46:14.498Z,63.98
2023-04-18T09:47:14.449Z,67.03
2023-04-18T09:48:14.420Z,63.48
2023-04-18T09:49:14.840Z,67.17
2023-04-18T09:50:14.401Z,69.46
2023-04-18T09:51:14.398Z,65.88
2023-04-18T09:52:14.392Z,62.37
2023-04-18T09:53:14.399Z,68.31
2023-04-18T09:54:14.474Z,68.89
2023-04-18T09:55:14.428Z,66.03
2023-04-18T09:56:14.356Z,67.20
2023-04-18T09:57:14.370Z,69.01
2023-04-18T09:58:14.341Z,66.62
2023-04-18T09:59:14.480Z,66.59
2023-04-18T10:00:14.375Z,66.64
2023-04-18T10:01:14.345Z,62.15
2023-04-18T10:02:14.310Z,67.54
2023-04-18T10:03:14.467Z,66.32
2023-04-18T10:04:14.686Z,67.25
2023-04-18T10:05:14.317Z,66.28
2023-04-18T10:06:14.271Z,66.23
2023-04-18T10:07:14.268Z,63.20
2023-04-18T10:08:14.281Z,66.96
2023-04-18T10:09:14.542Z,64.75
2023-04-18T10:10:14.251Z,63.80
2023-04-18T10:11:14.243Z,67.21
2023-04-18T10:12:14.227Z,66.84
2023-04-18T10:13:14.282Z,68.62
2023-04-18T10:14:14.363Z,68.40
2023-04-18T10:15:14.220Z,67.44
2023-04-18T10:16:14.252Z,65.29
2023-04-18T10:17:14.207Z,67.16
2023-04-18T10:18:14.243Z,70.10
2023-04-18T10:19:14.300Z,63.57
2023-04-18T10:20:14.199Z,69.23
2023-04-18T10:21:14.197Z,67.21
2023-04-18T10:22:14.191Z,65.34
2023-04-18T10:23:14.187Z,61.47
2023-04-18T10:24:14.253Z,66.81
2023-04-18T10:25:14.174Z,63.22
2023-04-18T10:26:14.158Z,67.84
2023-04-18T10:27:14.114Z,67.94
2023-04-18T10:28:14.191Z,64.73
2023-04-18T10:29:14.299Z,67.34
2023-04-18T10:30:14.087Z,64.63
2023-04-18T10:31:14.112Z,67.88
2023-04-18T10:32:14.072Z,65.52
2023-04-18T10:33:21.948Z,71.80
2023-04-18T10:34:16.073Z,64.36
2023-04-18T10:35:14.068Z,63.80
2023-04-18T10:36:14.038Z,65.59
2023-04-18T10:37:14.032Z,66.21
2023-04-18T10:38:14.066Z,68.19
2023-04-18T10:39:14.022Z,64.14
2023-04-18T10:40:14.029Z,67.03
2023-04-18T10:41:14.008Z,65.34
2023-04-18T10:42:14.002Z,68.28
2023-04-18T10:43:14.020Z,65.67
2023-04-18T10:44:14.138Z,67.71
2023-04-18T10:45:13.972Z,68.69
2023-04-18T10:46:27.928Z,67.21
2023-04-18T10:47:15.980Z,64.27
2023-04-18T10:48:13.984Z,66.29
2023-04-18T10:49:14.092Z,67.11
2023-04-18T10:50:13.931Z,65.71
2023-04-18T10:51:13.929Z,63.25
2023-04-18T10:52:13.920Z,66.95
2023-04-18T10:53:13.938Z,68.96
2023-04-18T10:54:14.087Z,67.73
2023-04-18T10:55:13.896Z,67.71
2023-04-18T10:56:13.890Z,70.89
2023-04-18T10:57:13.898Z,65.42
2023-04-18T10:58:13.898Z,67.40
2023-04-18T10:59:13.865Z,66.56
2023-04-18T11:00:13.882Z,67.08
2023-04-18T11:01:13.895Z,71.29
2023-04-18T11:02:13.893Z,63.92
2023-04-18T11:03:14.078Z,68.53
2023-04-18T11:04:14.275Z,65.95
2023-04-18T11:05:13.825Z,66.61
2023-04-18T11:06:13.811Z,65.66
2023-04-18T11:07:13.802Z,68.16
2023-04-18T11:08:13.817Z,67.13
2023-04-18T11:09:13.931Z,65.25
2023-04-18T11:10:13.781Z,68.78
2023-04-18T11:11:13.774Z,69.42
2023-04-18T11:12:13.763Z,67.99
2023-04-18T11:13:13.796Z,65.16
2023-04-18T11:14:14.146Z,67.14
2023-04-18T11:15:14.757Z,65.49
2023-04-18T11:16:13.763Z,66.27
2023-04-18T11:17:13.729Z,64.92
2023-04-18T11:18:13.747Z,64.41
2023-04-18T11:19:13.729Z,65.05
2023-04-18T11:20:13.698Z,67.37
2023-04-18T11:21:13.696Z,66.07
2023-04-18T11:22:13.693Z,69.07
2023-04-18T11:23:13.706Z,67.32
2023-04-18T11:24:13.830Z,68.17
2023-04-18T11:25:13.697Z,63.56
2023-04-18T11:26:13.665Z,59.95
2023-04-18T11:27:13.646Z,64.24
2023-04-18T11:28:13.663Z,68.14
2023-04-18T11:29:13.681Z,66.06
2023-04-18T11:30:13.628Z,66.61
2023-04-18T11:31:13.632Z,64.54
2023-04-18T11:32:13.632Z,67.94
2023-04-18T11:33:13.739Z,65.06
2023-04-18T11:34:13.739Z,68.77
2023-04-18T11:35:13.590Z,66.13
2023-04-18T11:36:13.581Z,63.78
2023-04-18T11:37:13.574Z,68.31
2023-04-18T11:38:13.600Z,66.03
2023-04-18T11:39:13.562Z,65.38
2023-04-18T11:40:13.556Z,66.37
2023-04-18T11:41:13.536Z,64.34
2023-04-18T11:42:13.560Z,65.36
2023-04-18T11:43:13.555Z,63.66
2023-04-18T11:44:13.702Z,64.26
2023-04-18T11:45:13.511Z,67.48
2023-04-18T11:46:13.552Z,65.51
2023-04-18T11:47:13.492Z,67.79
2023-04-18T11:48:13.508Z,69.14
2023-04-18T11:49:13.488Z,63.56
2023-04-18T11:50:13.532Z,65.38
2023-04-18T11:51:13.461Z,67.52
2023-04-18T11:52:13.451Z,65.90
2023-04-18T11:53:13.471Z,64.24
2023-04-18T11:54:13.536Z,58.89
2023-04-18T11:55:13.427Z,68.47
2023-04-18T11:56:13.418Z,65.32
2023-04-18T11:57:13.409Z,67.65
2023-04-18T11:58:13.437Z,67.52
2023-04-18T11:59:13.403Z,66.02
2023-04-18T12:00:13.385Z,65.87
2023-04-18T12:01:13.377Z,64.19
2023-04-18T12:02:16.573Z,63.46
2023-04-18T12:03:14.531Z,68.75
2023-04-18T12:04:13.952Z,65.91
2023-04-18T12:05:13.551Z,60.44
2023-04-18T12:06:13.438Z,64.67
2023-04-18T12:07:13.470Z,65.64
2023-04-18T12:08:13.347Z,65.50
2023-04-18T12:09:13.321Z,66.04
2023-04-18T12:10:13.310Z,66.41
2023-04-18T12:11:13.308Z,65.70
2023-04-18T12:12:13.301Z,65.89
2023-04-18T12:13:13.319Z,61.56
2023-04-18T12:14:13.454Z,67.20
2023-04-18T12:15:13.273Z,68.17
2023-04-18T12:16:13.308Z,67.58
2023-04-18T12:17:13.258Z,65.81
2023-04-18T12:18:13.278Z,65.36
2023-04-18T12:19:13.392Z,67.53
2023-04-18T12:20:13.258Z,68.34
2023-04-18T12:21:13.226Z,67.22
2023-04-18T12:22:13.220Z,66.19
2023-04-18T12:23:13.270Z,66.72
2023-04-18T12:24:13.412Z,64.73
2023-04-18T12:25:13.194Z,67.66
2023-04-18T12:26:13.189Z,64.37
2023-04-18T12:27:13.186Z,65.50
2023-04-18T12:28:13.202Z,67.75
2023-04-18T12:29:13.653Z,67.45
2023-04-18T12:30:13.182Z,67.11
2023-04-18T12:31:13.184Z,66.55
2023-04-18T12:32:13.140Z,65.59
2023-04-18T12:33:13.168Z,67.22
2023-04-18T12:34:13.293Z,67.39
2023-04-18T12:35:13.125Z,63.83
2023-04-18T12:36:13.110Z,65.49
2023-04-18T12:37:13.100Z,65.78
2023-04-18T12:38:13.098Z,67.12
2023-04-18T12:39:13.106Z,65.66
2023-04-18T12:40:13.114Z,63.00
2023-04-18T12:41:13.072Z,67.25
2023-04-18T12:42:13.087Z,64.16
2023-04-18T12:43:13.047Z,60.78
2023-04-18T12:44:13.325Z,67.61
2023-04-18T12:45:13.045Z,68.68
2023-04-18T12:46:13.056Z,69.39
2023-04-18T12:47:13.029Z,63.63
2023-04-18T12:48:13.025Z,68.37
2023-04-18T12:49:13.029Z,67.18
2023-04-18T12:50:13.051Z,66.39
2023-04-18T12:51:12.991Z,69.89
2023-04-18T12:52:12.982Z,65.95